createdAt,value
2018-04-16T00:00:54.966Z,10.10
2018-04-16T00:03:23.236Z,8.50
2018-04-16T00:05:50.774Z,10.30
2018-04-16T00:08:18.312Z,14.97
2018-04-16T00:10:45.877Z,10.93
2018-04-16T00:13:13.416Z,9.63
2018-04-16T00:15:40.968Z,10.00
2018-04-16T00:18:08.465Z,8.77
2018-04-16T00:20:36.002Z,11.97
2018-04-16T00:23:04.312Z,9.40
2018-04-16T00:25:31.839Z,8.80
2018-04-16T00:27:59.384Z,10.40
2018-04-16T00:30:27.708Z,8.10
2018-04-16T00:33:00.772Z,9.47
2018-04-16T00:35:33.972Z,8.97
2018-04-16T00:38:07.931Z,10.43
2018-04-16T00:40:41.025Z,10.37
2018-04-16T00:43:14.159Z,11.83
2018-04-16T00:45:47.231Z,11.10
2018-04-16T00:48:20.388Z,11.57
2018-04-16T00:50:53.630Z,11.70
2018-04-16T00:53:26.769Z,11.23
2018-04-16T00:56:00.112Z,11.50
2018-04-16T00:58:33.348Z,11.03
2018-04-16T01:01:06.381Z,13.20
2018-04-16T01:03:39.635Z,11.23
2018-04-16T01:06:13.574Z,23.17
2018-04-16T01:08:46.883Z,12.70
2018-04-16T01:14:19.879Z,15.23
2018-04-16T01:16:53.180Z,11.97
2018-04-16T01:19:26.289Z,12.07
2018-04-16T01:21:59.444Z,10.47
2018-04-16T01:24:32.523Z,11.97
2018-04-16T01:27:06.384Z,14.90
2018-04-16T01:29:39.602Z,12.43
2018-04-16T01:32:12.727Z,11.87
2018-04-16T01:34:46.005Z,10.10
2018-04-16T01:37:19.252Z,13.03
2018-04-16T01:39:52.494Z,9.97
2018-04-16T01:42:25.730Z,9.63
2018-04-16T01:44:58.923Z,11.10
2018-04-16T01:47:32.069Z,11.03
2018-04-16T01:50:05.242Z,9.47
2018-04-16T01:52:38.630Z,17.70
2018-04-16T01:55:11.812Z,8.73
2018-04-16T01:57:45.002Z,10.17
2018-04-16T02:00:18.919Z,10.33
2018-04-16T02:02:53.122Z,10.47
2018-04-16T02:05:26.266Z,15.67
2018-04-16T02:07:59.503Z,11.33
2018-04-16T02:10:32.755Z,11.87
2018-04-16T02:13:05.910Z,12.20
2018-04-16T02:15:39.028Z,13.10
2018-04-16T02:18:12.260Z,15.53
2018-04-16T02:20:45.437Z,12.20
2018-04-16T02:23:18.577Z,10.63
2018-04-16T02:25:52.557Z,10.70
2018-04-16T02:28:26.001Z,11.10
2018-04-16T02:30:59.257Z,9.93
2018-04-16T02:33:32.437Z,13.40
2018-04-16T02:36:06.327Z,13.87
2018-04-16T02:38:39.529Z,12.17
2018-04-16T02:41:12.673Z,13.57
2018-04-16T02:43:45.794Z,11.27
2018-04-16T02:46:18.927Z,10.90
2018-04-16T02:48:52.140Z,11.07
2018-04-16T02:51:25.365Z,11.03
2018-04-16T02:53:58.553Z,11.87
2018-04-16T02:56:31.828Z,10.63
2018-04-16T02:59:04.984Z,13.50
2018-04-16T03:01:38.938Z,10.07
2018-04-16T03:04:12.139Z,10.50
2018-04-16T03:06:45.437Z,9.60
2018-04-16T03:09:18.665Z,10.60
2018-04-16T03:11:51.860Z,10.67
2018-04-16T03:14:25.076Z,11.33
2018-04-16T03:19:58.193Z,11.20
2018-04-16T03:22:42.521Z,11.30
2018-04-16T03:28:16.409Z,15.17
2018-04-16T03:30:50.513Z,9.60
2018-04-16T03:33:24.483Z,10.70
2018-04-16T03:35:57.625Z,13.13
2018-04-16T03:38:30.739Z,10.33
2018-04-16T03:44:07.731Z,10.00
2018-04-16T03:46:40.860Z,11.33
2018-04-16T03:49:13.994Z,10.13
2018-04-16T03:51:43.111Z,10.47
2018-04-16T03:54:11.418Z,10.23
2018-04-16T03:56:38.984Z,10.07
2018-04-16T03:59:06.501Z,13.20
2018-04-16T04:01:34.109Z,9.73
2018-04-16T04:04:01.633Z,10.47
2018-04-16T04:06:29.165Z,10.33
2018-04-16T04:08:56.674Z,8.30
2018-04-16T04:11:24.231Z,10.20
2018-04-16T04:13:51.786Z,9.60
2018-04-16T04:16:19.321Z,11.53
2018-04-16T04:18:46.836Z,10.20
2018-04-16T04:21:14.360Z,12.20
2018-04-16T04:23:55.189Z,12.30
2018-04-16T04:26:34.573Z,13.07
2018-04-16T04:29:14.057Z,11.20
2018-04-16T04:31:42.398Z,12.20
2018-04-16T04:34:10.054Z,12.30
2018-04-16T04:36:37.553Z,14.93
2018-04-16T04:39:05.081Z,13.07
2018-04-16T04:41:32.656Z,14.83
2018-04-16T04:44:00.184Z,14.77
2018-04-16T04:46:27.784Z,17.70
2018-04-16T04:48:56.172Z,13.70
2018-04-16T04:51:24.466Z,14.43
2018-04-16T04:53:52.829Z,14.77
2018-04-16T04:56:20.383Z,14.17
2018-04-16T04:58:48.721Z,15.30
2018-04-16T05:01:16.992Z,14.93
2018-04-16T05:03:44.906Z,13.97
2018-04-16T05:06:12.429Z,17.10
2018-04-16T05:08:39.967Z,15.30
2018-04-16T05:11:07.492Z,17.50
2018-04-16T05:13:35.785Z,15.90
2018-04-16T05:16:04.057Z,16.70
2018-04-16T05:18:31.670Z,14.20
2018-04-16T05:20:59.173Z,18.17
2018-04-16T05:23:26.699Z,13.67
2018-04-16T05:28:29.621Z,18.97
2018-04-16T05:30:57.933Z,16.03
2018-04-16T05:33:25.477Z,19.57
2018-04-16T05:35:53.774Z,17.20
2018-04-16T05:38:22.096Z,17.23
2018-04-16T05:40:49.603Z,18.00
2018-04-16T05:43:17.121Z,17.43
2018-04-16T05:45:44.669Z,16.10
2018-04-16T05:48:12.201Z,14.83
2018-04-16T05:50:39.711Z,13.33
2018-04-16T05:53:08.005Z,13.03
2018-04-16T05:55:36.296Z,13.60
2018-04-16T05:58:04.615Z,18.80
2018-04-16T06:00:32.133Z,11.87
2018-04-16T06:02:59.636Z,13.90
2018-04-16T06:05:27.960Z,14.20
2018-04-16T06:07:55.448Z,11.90
2018-04-16T06:10:23.090Z,13.70
2018-04-16T06:12:50.688Z,14.87
2018-04-16T06:15:18.219Z,13.87
2018-04-16T06:17:45.724Z,11.60
2018-04-16T06:20:13.284Z,15.47
2018-04-16T06:22:40.797Z,11.50
2018-04-16T06:25:09.170Z,16.30
2018-04-16T06:27:36.687Z,12.37
2018-04-16T06:30:05.026Z,13.10
2018-04-16T06:32:32.532Z,14.23
2018-04-16T06:35:00.060Z,13.13
2018-04-16T06:37:27.596Z,12.33
2018-04-16T06:39:55.217Z,9.77
2018-04-16T06:42:22.774Z,11.57
2018-04-16T06:44:50.289Z,11.70
2018-04-16T06:47:17.872Z,8.43
2018-04-16T06:49:46.250Z,8.77
2018-04-16T06:52:13.748Z,9.50
2018-04-16T06:54:42.033Z,10.83
2018-04-16T06:57:09.921Z,11.53
2018-04-16T06:59:37.456Z,12.80
2018-04-16T07:02:04.984Z,7.63
2018-04-16T07:04:32.613Z,8.97
2018-04-16T07:07:00.889Z,8.50
2018-04-16T07:09:28.476Z,7.70
2018-04-16T07:11:57.803Z,7.10
2018-04-16T07:14:26.321Z,9.10
2018-04-16T07:16:54.093Z,8.40
2018-04-16T07:19:21.691Z,6.63
2018-04-16T07:21:49.260Z,8.23
2018-04-16T07:24:16.863Z,8.13
2018-04-16T07:26:44.647Z,7.83
2018-04-16T07:29:12.203Z,9.17
2018-04-16T07:31:39.989Z,7.57
2018-04-16T07:34:07.516Z,8.60
2018-04-16T07:36:35.156Z,9.90
2018-04-16T07:39:03.466Z,8.30
2018-04-16T07:41:31.044Z,9.73
2018-04-16T07:43:58.540Z,9.47
2018-04-16T07:46:26.077Z,9.47
2018-04-16T07:48:53.580Z,11.10
2018-04-16T07:51:21.106Z,8.40
2018-04-16T07:53:49.422Z,8.80
2018-04-16T07:56:17.027Z,13.13
2018-04-16T07:58:44.965Z,8.00
2018-04-16T08:01:12.529Z,9.33
2018-04-16T08:03:40.827Z,7.37
2018-04-16T08:06:08.347Z,7.97
2018-04-16T08:08:36.131Z,10.40
2018-04-16T08:11:03.671Z,7.47
2018-04-16T08:13:31.422Z,7.40
2018-04-16T08:15:59.021Z,8.53
2018-04-16T08:18:26.632Z,7.67
2018-04-16T08:20:54.397Z,6.50
2018-04-16T08:23:22.883Z,7.97
2018-04-16T08:25:50.492Z,8.50
2018-04-16T08:28:17.998Z,5.27
2018-04-16T08:30:45.553Z,6.93
2018-04-16T08:33:14.670Z,4.67
2018-04-16T08:35:42.172Z,9.53
2018-04-16T08:38:09.752Z,8.20
2018-04-16T08:40:37.306Z,8.20
2018-04-16T08:43:04.954Z,10.70
2018-04-16T08:45:32.474Z,7.00
2018-04-16T08:48:00.013Z,6.53
2018-04-16T08:50:27.569Z,6.77
2018-04-16T08:52:55.083Z,7.10
2018-04-16T08:55:22.899Z,6.40
2018-04-16T08:57:51.496Z,6.40
2018-04-16T09:00:19.109Z,5.73
2018-04-16T09:02:46.644Z,7.03
2018-04-16T09:05:14.377Z,7.87
2018-04-16T09:07:41.994Z,6.07
2018-04-16T09:10:11.217Z,9.73
2018-04-16T09:12:40.738Z,5.47
2018-04-16T09:15:09.000Z,6.10
2018-04-16T09:17:36.816Z,6.07
2018-04-16T09:20:04.360Z,6.33
2018-04-16T09:22:32.038Z,7.53
2018-04-16T09:24:59.592Z,7.20
2018-04-16T09:27:27.101Z,5.80
2018-04-16T09:29:55.401Z,8.67
2018-04-16T09:32:22.919Z,8.73
2018-04-16T09:34:51.310Z,11.37
2018-04-16T09:37:18.844Z,11.53
2018-04-16T09:39:46.508Z,9.50
2018-04-16T09:42:14.201Z,9.67
2018-04-16T09:44:41.816Z,13.57
2018-04-16T09:47:09.355Z,11.73
2018-04-16T09:49:38.634Z,11.93
2018-04-16T09:52:06.937Z,9.77
2018-04-16T09:54:34.435Z,9.37
2018-04-16T09:57:01.967Z,9.83
2018-04-16T09:59:30.253Z,7.97
2018-04-16T10:01:58.664Z,8.70
2018-04-16T10:04:26.228Z,6.70
2018-04-16T10:06:53.764Z,6.77
2018-04-16T10:09:21.281Z,8.37
2018-04-16T10:11:49.686Z,9.20
2018-04-16T10:14:17.235Z,8.97
2018-04-16T10:16:44.756Z,8.13
2018-04-16T10:19:12.305Z,7.83
2018-04-16T10:21:39.891Z,6.70
2018-04-16T10:24:07.415Z,10.57
2018-04-16T10:26:35.715Z,10.37
2018-04-16T10:29:03.256Z,6.93
2018-04-16T10:31:30.900Z,11.00
2018-04-16T10:33:58.393Z,7.33
2018-04-16T10:36:25.943Z,7.50
2018-04-16T10:38:53.451Z,12.50
2018-04-16T10:41:20.973Z,15.27
2018-04-16T10:43:48.499Z,9.70
2018-04-16T10:46:15.998Z,8.17
2018-04-16T10:48:43.518Z,19.63
2018-04-16T10:51:12.539Z,7.63
2018-04-16T10:53:40.672Z,7.20
2018-04-16T10:56:08.183Z,8.00
2018-04-16T10:58:35.708Z,8.20
2018-04-16T11:01:03.220Z,8.53
2018-04-16T11:03:30.769Z,6.30
2018-04-16T11:05:58.368Z,15.90
2018-04-16T11:08:25.964Z,9.67
2018-04-16T11:10:54.905Z,10.27
2018-04-16T11:13:22.437Z,8.03
2018-04-16T11:15:50.046Z,6.67
2018-04-16T11:18:18.544Z,9.17
2018-04-16T11:20:46.088Z,6.90
2018-04-16T11:23:14.376Z,7.70
2018-04-16T11:25:42.661Z,12.83
2018-04-16T11:28:10.341Z,7.20
2018-04-16T11:30:38.628Z,6.90
2018-04-16T11:33:07.522Z,9.90
2018-04-16T11:35:35.913Z,8.23
2018-04-16T11:38:03.489Z,6.80
2018-04-16T11:40:31.025Z,9.03
2018-04-16T11:42:58.552Z,19.07
2018-04-16T11:45:27.030Z,11.50
2018-04-16T11:47:56.652Z,10.67
2018-04-16T11:50:24.949Z,9.03
2018-04-16T11:52:53.293Z,7.07
2018-04-16T11:55:21.235Z,10.63
2018-04-16T11:57:48.735Z,9.90
2018-04-16T12:00:16.323Z,8.90
2018-04-16T12:02:43.912Z,11.57
2018-04-16T12:05:11.565Z,11.37
2018-04-16T12:07:39.073Z,6.63
2018-04-16T12:10:07.431Z,10.07
2018-04-16T12:12:35.078Z,8.97
2018-04-16T12:15:02.609Z,11.50
2018-04-16T12:17:30.868Z,7.23
2018-04-16T12:19:58.402Z,8.67
2018-04-16T12:22:25.905Z,6.37
2018-04-16T12:24:53.602Z,9.40
2018-04-16T12:27:21.114Z,5.43
2018-04-16T12:29:48.819Z,7.40
2018-04-16T12:32:16.343Z,6.30
2018-04-16T12:34:44.660Z,7.07
2018-04-16T12:37:15.230Z,6.13
2018-04-16T12:39:42.765Z,7.50
2018-04-16T12:42:10.288Z,8.17
2018-04-16T12:44:37.961Z,7.97
2018-04-16T12:47:05.467Z,10.00
2018-04-16T12:49:33.829Z,10.33
2018-04-16T12:52:01.338Z,8.40
2018-04-16T12:54:29.017Z,8.47
2018-04-16T12:56:56.552Z,9.03
2018-04-16T12:59:24.064Z,10.60
2018-04-16T13:01:51.591Z,9.13
2018-04-16T13:04:19.186Z,14.07
2018-04-16T13:06:47.501Z,8.07
2018-04-16T13:09:15.169Z,7.97
2018-04-16T13:11:45.757Z,7.00
2018-04-16T13:14:24.785Z,6.37
2018-04-16T13:16:52.300Z,8.00
2018-04-16T13:19:20.010Z,5.80
2018-04-16T13:21:59.968Z,6.57
2018-04-16T13:24:40.381Z,6.33
2018-04-16T13:27:09.903Z,7.77
2018-04-16T13:29:37.511Z,9.60
2018-04-16T13:32:05.943Z,5.97
2018-04-16T13:34:33.472Z,6.93
2018-04-16T13:37:01.769Z,5.13
2018-04-16T13:39:30.093Z,8.93
2018-04-16T13:41:57.692Z,10.60
2018-04-16T13:44:25.318Z,9.03
2018-04-16T13:46:52.993Z,7.17
2018-04-16T13:49:20.827Z,7.90
2018-04-16T13:51:48.413Z,6.63
2018-04-16T13:54:17.123Z,4.87
2018-04-16T13:56:44.811Z,9.10
2018-04-16T13:59:13.116Z,5.60
2018-04-16T14:01:52.911Z,8.60
2018-04-16T14:04:20.509Z,9.53
2018-04-16T14:06:49.118Z,7.80
2018-04-16T14:09:18.439Z,5.30
2018-04-16T14:11:46.992Z,8.80
2018-04-16T14:14:14.547Z,8.03
2018-04-16T14:16:42.084Z,8.10
2018-04-16T14:19:10.484Z,8.33
2018-04-16T14:21:38.042Z,9.07
2018-04-16T14:24:06.388Z,5.07
2018-04-16T14:26:33.913Z,10.20
2018-04-16T14:29:01.480Z,8.53
2018-04-16T14:31:29.825Z,7.27
2018-04-16T14:33:57.369Z,5.67
2018-04-16T14:36:24.884Z,6.00
2018-04-16T14:38:54.662Z,8.00
2018-04-16T14:41:22.200Z,7.47
2018-04-16T14:43:49.719Z,15.23
2018-04-16T14:46:17.364Z,6.17
2018-04-16T14:48:44.962Z,6.30
2018-04-16T14:51:12.485Z,10.37
2018-04-16T14:53:40.088Z,10.10
2018-04-16T14:56:07.667Z,8.30
2018-04-16T14:58:35.247Z,7.60
2018-04-16T15:01:02.799Z,7.63
2018-04-16T15:03:30.592Z,7.97
2018-04-16T15:05:58.136Z,4.20
2018-04-16T15:08:26.413Z,8.07
2018-04-16T15:10:54.808Z,7.30
2018-04-16T15:13:23.136Z,6.83
2018-04-16T15:15:50.672Z,8.30
2018-04-16T15:18:18.973Z,13.17
2018-04-16T15:20:47.402Z,7.70
2018-04-16T15:23:14.938Z,8.97
2018-04-16T15:25:43.313Z,7.03
2018-04-16T15:28:10.835Z,5.77
2018-04-16T15:30:38.392Z,10.03
2018-04-16T15:33:05.982Z,7.20
2018-04-16T15:35:33.512Z,8.23
2018-04-16T15:38:01.785Z,9.10
2018-04-16T15:40:29.335Z,6.33
2018-04-16T15:42:56.881Z,7.00
2018-04-16T15:45:24.431Z,8.47
2018-04-16T15:47:51.968Z,6.17
2018-04-16T15:50:19.568Z,11.87
2018-04-16T15:52:47.150Z,12.37
2018-04-16T15:55:14.720Z,9.67
2018-04-16T15:57:42.264Z,10.50
2018-04-16T16:00:09.807Z,5.90
2018-04-16T16:02:37.367Z,14.03
2018-04-16T16:05:05.012Z,6.50
2018-04-16T16:07:32.653Z,6.20
2018-04-16T16:10:00.468Z,12.00
2018-04-16T16:12:27.988Z,10.50
2018-04-16T16:14:55.506Z,8.73
2018-04-16T16:17:23.033Z,9.70
2018-04-16T16:19:50.749Z,6.80
2018-04-16T16:22:18.285Z,5.33
2018-04-16T16:24:46.154Z,9.40
2018-04-16T16:27:13.680Z,8.43
2018-04-16T16:29:41.183Z,8.10
2018-04-16T16:32:08.696Z,5.90
2018-04-16T16:34:38.020Z,8.10
2018-04-16T16:37:06.313Z,5.27
2018-04-16T16:39:33.835Z,8.87
2018-04-16T16:42:01.352Z,6.67
2018-04-16T16:44:29.632Z,7.10
2018-04-16T16:46:57.925Z,5.50
2018-04-16T16:49:26.193Z,7.50
2018-04-16T16:51:53.724Z,6.80
2018-04-16T16:54:21.246Z,7.70
2018-04-16T16:56:49.535Z,7.17
2018-04-16T16:59:17.815Z,6.83
2018-04-16T17:01:45.336Z,6.87
2018-04-16T17:04:12.839Z,19.53
2018-04-16T17:06:40.373Z,10.73
2018-04-16T17:09:07.929Z,4.33
2018-04-16T17:11:35.537Z,5.83
2018-04-16T17:14:03.044Z,5.50
2018-04-16T17:16:31.342Z,6.67
2018-04-16T17:18:59.644Z,8.27
2018-04-16T17:21:27.958Z,14.47
2018-04-16T17:23:55.507Z,15.10
2018-04-16T17:26:23.810Z,10.10
2018-04-16T17:28:51.304Z,7.63
2018-04-16T17:31:18.850Z,11.30
2018-04-16T17:33:46.402Z,7.37
2018-04-16T17:36:14.692Z,10.40
2018-04-16T17:38:42.971Z,12.40
2018-04-16T17:41:10.495Z,14.40
2018-04-16T17:43:38.018Z,10.10
2018-04-16T17:46:05.533Z,11.57
2018-04-16T17:48:33.067Z,13.57
2018-04-16T17:51:01.389Z,7.33
2018-04-16T17:53:28.895Z,8.20
2018-04-16T17:55:56.402Z,11.63
2018-04-16T17:58:24.689Z,9.20
2018-04-16T18:00:52.956Z,13.37
2018-04-16T18:03:20.472Z,8.27
2018-04-16T18:05:47.972Z,8.13
2018-04-16T18:08:15.492Z,13.00
2018-04-16T18:10:43.773Z,11.40
2018-04-16T18:13:11.292Z,14.73
2018-04-16T18:15:38.792Z,15.30
2018-04-16T18:18:06.323Z,9.77
2018-04-16T18:20:33.829Z,8.43
2018-04-16T18:23:01.359Z,10.60
2018-04-16T18:25:28.860Z,10.77
2018-04-16T18:27:56.404Z,12.77
2018-04-16T18:30:24.066Z,8.80
2018-04-16T18:32:52.357Z,10.23
2018-04-16T18:35:19.899Z,13.87
2018-04-16T18:37:48.215Z,29.10
2018-04-16T18:40:16.516Z,21.03
2018-04-16T18:42:44.042Z,14.70
2018-04-16T18:45:12.422Z,11.47
2018-04-16T18:47:39.940Z,13.30
2018-04-16T18:50:08.259Z,9.13
2018-04-16T18:52:35.774Z,12.00
2018-04-16T18:55:03.292Z,12.17
2018-04-16T18:57:30.802Z,12.97
2018-04-16T18:59:59.080Z,8.33
2018-04-16T19:02:26.585Z,11.30
2018-04-16T19:04:54.106Z,9.23
2018-04-16T19:07:21.612Z,6.17
2018-04-16T19:09:49.125Z,6.93
2018-04-16T19:12:16.649Z,16.27
2018-04-16T19:14:44.170Z,11.40
2018-04-16T19:17:11.677Z,10.40
2018-04-16T19:19:39.212Z,9.23
2018-04-16T19:22:06.716Z,11.13
2018-04-16T19:24:34.255Z,11.40
2018-04-16T19:27:07.352Z,15.23
2018-04-16T19:29:34.886Z,12.97
2018-04-16T19:32:02.392Z,9.07
2018-04-16T19:34:35.493Z,11.70
2018-04-16T19:37:02.987Z,9.03
2018-04-16T19:39:30.511Z,12.57
2018-04-16T19:42:03.793Z,12.77
2018-04-16T19:44:31.325Z,12.13
2018-04-16T19:46:58.841Z,20.17
2018-04-16T19:49:32.066Z,15.70
2018-04-16T19:51:59.653Z,13.97
2018-04-16T19:54:27.945Z,8.97
2018-04-16T19:57:14.940Z,19.00
2018-04-16T19:59:42.458Z,13.33
2018-04-16T20:02:15.541Z,11.57
2018-04-16T20:04:43.834Z,8.50
2018-04-16T20:07:12.100Z,7.63
2018-04-16T20:09:39.624Z,13.07
2018-04-16T20:12:07.121Z,13.43
2018-04-16T20:14:34.628Z,12.73
2018-04-16T20:17:02.955Z,10.83
2018-04-16T20:19:30.451Z,14.67
2018-04-16T20:21:57.978Z,11.40
2018-04-16T20:24:26.406Z,12.77
2018-04-16T20:26:53.929Z,9.63
2018-04-16T20:29:22.215Z,14.67
2018-04-16T20:31:50.500Z,10.57
2018-04-16T20:34:18.765Z,12.80
2018-04-16T20:36:46.281Z,8.50
2018-04-16T20:39:13.789Z,12.10
2018-04-16T20:41:41.313Z,17.47
2018-04-16T20:44:09.577Z,9.77
2018-04-16T20:46:37.093Z,14.87
2018-04-16T20:49:04.599Z,11.27
2018-04-16T20:51:32.113Z,11.47
2018-04-16T20:54:00.373Z,12.20
2018-04-16T20:56:27.884Z,13.60
2018-04-16T20:58:55.380Z,13.13
2018-04-16T21:01:22.892Z,16.63
2018-04-16T21:03:50.401Z,19.57
2018-04-16T21:06:17.922Z,17.70
2018-04-16T21:08:45.420Z,14.43
2018-04-16T21:11:13.708Z,12.20
2018-04-16T21:13:41.981Z,14.87
2018-04-16T21:16:09.906Z,12.03
2018-04-16T21:18:37.413Z,18.10
2018-04-16T21:21:04.929Z,11.63
2018-04-16T21:23:32.433Z,17.37
2018-04-16T21:25:59.962Z,16.83
2018-04-16T21:28:27.448Z,11.53
2018-04-16T21:30:54.960Z,11.23
2018-04-16T21:33:22.462Z,16.53
2018-04-16T21:35:49.987Z,15.43
2018-04-16T21:38:17.486Z,13.70
2018-04-16T21:40:45.009Z,11.90
2018-04-16T21:43:12.525Z,16.07
2018-04-16T21:45:40.059Z,16.10
2018-04-16T21:48:07.568Z,12.40
2018-04-16T21:50:35.091Z,16.77
2018-04-16T21:53:02.604Z,14.70
2018-04-16T21:55:30.364Z,19.77
2018-04-16T21:57:57.911Z,23.47
2018-04-16T22:00:25.416Z,15.30
2018-04-16T22:02:52.940Z,17.07
2018-04-16T22:05:21.216Z,20.83
2018-04-16T22:07:49.497Z,18.33
2018-04-16T22:10:16.997Z,18.50
2018-04-16T22:12:44.517Z,12.60
2018-04-16T22:15:12.012Z,12.33
2018-04-16T22:17:40.303Z,20.40
2018-04-16T22:20:07.812Z,21.13
2018-04-16T22:22:35.329Z,21.13
2018-04-16T22:25:02.844Z,19.20
2018-04-16T22:27:30.380Z,21.50
2018-04-16T22:29:57.887Z,24.23
2018-04-16T22:32:25.404Z,18.47
2018-04-16T22:34:52.920Z,16.57
2018-04-16T22:37:21.215Z,23.60
2018-04-16T22:39:48.727Z,17.57
2018-04-16T22:42:16.255Z,18.97
2018-04-16T22:44:43.757Z,14.70
2018-04-16T22:47:11.309Z,15.40
2018-04-16T22:49:38.804Z,14.40
2018-04-16T22:52:06.329Z,22.47
2018-04-16T22:54:33.839Z,15.70
2018-04-16T22:57:01.358Z,13.87
2018-04-16T22:59:29.645Z,22.07
2018-04-16T23:01:57.933Z,17.73
2018-04-16T23:04:25.451Z,19.83
2018-04-16T23:06:52.972Z,16.43
2018-04-16T23:09:20.471Z,21.37
2018-04-16T23:11:48.009Z,21.93
2018-04-16T23:14:15.525Z,18.60
2018-04-16T23:16:43.026Z,14.60
2018-04-16T23:19:10.548Z,19.20
2018-04-16T23:21:38.812Z,17.80
2018-04-16T23:24:06.328Z,14.77
2018-04-16T23:26:33.843Z,22.43
2018-04-16T23:29:01.373Z,18.57
2018-04-16T23:31:28.896Z,18.60
2018-04-16T23:33:56.412Z,15.10
2018-04-16T23:36:23.913Z,16.53
2018-04-16T23:38:51.453Z,21.00
2018-04-16T23:41:18.954Z,20.60
2018-04-16T23:43:46.483Z,15.20
2018-04-16T23:46:13.981Z,20.30
2018-04-16T23:48:41.501Z,18.70
2018-04-16T23:51:09.780Z,17.23
2018-04-16T23:53:37.302Z,14.63
2018-04-16T23:56:04.810Z,23.23
2018-04-16T23:58:32.324Z,17.53
